createdAt,value
2023-04-11T00:00:13.323Z,5.28
2023-04-11T00:02:40.590Z,5.28
2023-04-11T00:05:08.553Z,5.24
2023-04-11T00:07:35.923Z,5.22
2023-04-11T00:10:03.132Z,5.18
2023-04-11T00:12:31.283Z,5.15
2023-04-11T00:14:58.245Z,5.03
2023-04-11T00:17:25.390Z,5.11
2023-04-11T00:19:53.586Z,5.08
2023-04-11T00:22:20.673Z,4.99
2023-04-11T00:24:47.763Z,5.00
2023-04-11T00:27:14.708Z,5.01
2023-04-11T00:29:41.945Z,4.98
2023-04-11T00:32:09.018Z,4.95
2023-04-11T00:34:36.027Z,4.91
2023-04-11T00:37:03.112Z,4.85
2023-04-11T00:39:34.542Z,4.83
2023-04-11T00:42:06.769Z,4.78
2023-04-11T00:44:35.157Z,4.75
2023-04-11T00:47:03.440Z,4.71
2023-04-11T00:49:32.157Z,4.68
2023-04-11T00:52:00.715Z,4.62
2023-04-11T00:54:30.270Z,4.59
2023-04-11T00:57:02.267Z,4.56
2023-04-11T00:59:31.142Z,4.54
2023-04-11T01:01:59.291Z,4.52
2023-04-11T01:04:26.587Z,4.49
2023-04-11T01:06:59.677Z,4.48
2023-04-11T01:09:28.912Z,4.48
2023-04-11T01:11:56.640Z,4.48
2023-04-11T01:14:25.829Z,4.41
2023-04-11T01:16:53.364Z,4.43
2023-04-11T01:19:22.547Z,4.42
2023-04-11T01:21:52.335Z,4.44
2023-04-11T01:24:19.782Z,4.43
2023-04-11T01:26:46.687Z,4.37
2023-04-11T01:29:14.004Z,4.37
2023-04-11T01:31:41.087Z,4.35
2023-04-11T01:34:08.337Z,4.32
2023-04-11T01:36:35.437Z,4.35
2023-04-11T01:39:02.478Z,4.34
2023-04-11T01:41:30.722Z,4.33
2023-04-11T01:43:57.810Z,4.34
2023-04-11T01:46:25.606Z,4.34
2023-04-11T01:48:55.856Z,4.37
2023-04-11T01:51:23.099Z,4.40
2023-04-11T01:53:50.152Z,4.43
2023-04-11T01:56:17.501Z,4.46
2023-04-11T01:58:44.489Z,4.50
2023-04-11T02:01:13.487Z,4.53
2023-04-11T02:03:40.929Z,4.55
2023-04-11T02:06:10.283Z,4.56
2023-04-11T02:08:37.253Z,4.53
2023-04-11T02:11:04.800Z,4.56
2023-04-11T02:13:31.787Z,4.56
2023-04-11T02:16:04.521Z,4.48
2023-04-11T02:18:31.539Z,4.52
2023-04-11T02:20:58.739Z,4.50
2023-04-11T02:23:25.784Z,4.50
2023-04-11T02:25:52.774Z,4.47
2023-04-11T02:28:20.018Z,4.46
2023-04-11T02:30:47.169Z,4.47
2023-04-11T02:33:14.164Z,4.47
2023-04-11T02:35:41.387Z,4.48
2023-04-11T02:38:08.327Z,4.51
2023-04-11T02:40:35.375Z,4.55
2023-04-11T02:43:02.382Z,4.58
2023-04-11T02:45:29.352Z,4.64
2023-04-11T02:47:56.373Z,4.73
2023-04-11T02:50:23.594Z,4.80
2023-04-11T02:52:50.613Z,4.87
2023-04-11T02:55:17.604Z,4.86
2023-04-11T02:57:44.885Z,5.01
2023-04-11T03:00:12.308Z,5.09
2023-04-11T03:02:39.712Z,5.00
2023-04-11T03:05:07.608Z,5.27
2023-04-11T03:07:34.588Z,5.34
2023-04-11T03:10:01.601Z,5.45
2023-04-11T03:12:28.643Z,5.56
2023-04-11T03:14:55.751Z,5.65
2023-04-11T03:17:22.859Z,5.74
2023-04-11T03:19:49.970Z,5.85
2023-04-11T03:22:17.517Z,5.97
2023-04-11T03:24:44.580Z,6.13
2023-04-11T03:27:11.792Z,6.26
2023-04-11T03:29:38.846Z,6.38
2023-04-11T03:32:06.114Z,6.54
2023-04-11T03:34:33.215Z,6.67
2023-04-11T03:37:00.163Z,6.87
2023-04-11T03:39:27.174Z,7.02
2023-04-11T03:41:54.183Z,7.23
2023-04-11T03:44:21.094Z,7.42
2023-04-11T03:46:48.135Z,7.61
2023-04-11T03:49:15.211Z,7.80
2023-04-11T03:51:42.544Z,8.01
2023-04-11T03:54:09.532Z,8.19
2023-04-11T03:56:36.646Z,8.38
2023-04-11T03:59:03.771Z,8.57
2023-04-11T04:01:32.072Z,8.79
2023-04-11T04:04:01.015Z,8.97
2023-04-11T04:06:28.741Z,9.16
2023-04-11T04:08:55.972Z,9.39
2023-04-11T04:11:22.988Z,9.62
2023-04-11T04:13:49.971Z,9.85
2023-04-11T04:16:17.819Z,10.17
2023-04-11T04:18:44.818Z,10.53
2023-04-11T04:21:11.934Z,11.14
2023-04-11T04:23:39.553Z,12.18
2023-04-11T04:26:07.270Z,15.17
2023-04-11T04:28:34.496Z,19.15
2023-04-11T04:31:02.359Z,22.90
2023-04-11T04:33:33.260Z,25.97
2023-04-11T04:36:00.511Z,28.63
2023-04-11T04:38:28.950Z,30.83
2023-04-11T04:40:56.038Z,32.74
2023-04-11T04:43:24.550Z,34.28
2023-04-11T04:45:51.577Z,35.47
2023-04-11T04:48:18.633Z,36.62
2023-04-11T04:50:46.162Z,37.66
2023-04-11T04:53:13.209Z,38.62
2023-04-11T04:55:40.215Z,39.56
2023-04-11T04:58:07.247Z,40.38
2023-04-11T05:00:34.230Z,41.11
2023-04-11T05:03:05.860Z,41.63
2023-04-11T05:05:33.080Z,42.13
2023-04-11T05:08:01.223Z,42.63
2023-04-11T05:10:28.267Z,43.01
2023-04-11T05:12:55.696Z,43.34
2023-04-11T05:15:23.712Z,43.76
2023-04-11T05:17:50.826Z,44.14
2023-04-11T05:20:17.883Z,44.53
2023-04-11T05:22:44.718Z,44.89
2023-04-11T05:25:12.147Z,45.26
2023-04-11T05:27:39.535Z,45.62
2023-04-11T05:30:07.317Z,46.00
2023-04-11T05:32:36.512Z,46.33
2023-04-11T05:35:04.300Z,46.61
2023-04-11T05:37:31.508Z,46.86
2023-04-11T05:39:58.832Z,47.20
2023-04-11T05:42:25.944Z,47.54
2023-04-11T05:44:53.366Z,47.82
2023-04-11T05:47:20.521Z,48.01
2023-04-11T05:49:48.844Z,48.25
2023-04-11T05:52:16.214Z,48.50
2023-04-11T05:54:43.256Z,48.85
2023-04-11T05:57:10.212Z,49.05
2023-04-11T05:59:38.017Z,49.21
2023-04-11T06:02:05.072Z,49.37
2023-04-11T06:04:32.480Z,49.50
2023-04-11T06:06:59.691Z,49.70
2023-04-11T06:09:26.935Z,49.94
2023-04-11T06:11:54.020Z,50.10
2023-04-11T06:14:21.226Z,50.16
2023-04-11T06:16:48.168Z,50.30
2023-04-11T06:19:15.570Z,50.47
2023-04-11T06:21:42.745Z,50.58
2023-04-11T06:24:11.433Z,50.60
2023-04-11T06:26:38.431Z,50.62
2023-04-11T06:29:06.361Z,50.74
2023-04-11T06:31:34.343Z,50.87
2023-04-11T06:34:02.314Z,50.92
2023-04-11T06:36:30.240Z,50.95
2023-04-11T06:38:57.288Z,51.05
2023-04-11T06:41:24.373Z,51.12
2023-04-11T06:43:51.384Z,51.23
2023-04-11T06:46:18.415Z,51.37
2023-04-11T06:48:45.408Z,51.45
2023-04-11T06:51:12.433Z,51.45
2023-04-11T06:53:39.416Z,51.54
2023-04-11T06:56:06.894Z,51.73
2023-04-11T06:58:33.875Z,51.91
2023-04-11T07:01:00.841Z,52.11
2023-04-11T07:03:28.763Z,52.24
2023-04-11T07:05:55.777Z,52.39
2023-04-11T07:08:22.871Z,52.49
2023-04-11T07:10:50.089Z,52.51
2023-04-11T07:13:17.025Z,52.46
2023-04-11T07:15:45.475Z,52.27
2023-04-11T07:18:12.679Z,52.23
2023-04-11T07:20:39.635Z,52.23
2023-04-11T07:23:06.569Z,52.50
2023-04-11T07:25:33.977Z,52.84
2023-04-11T07:28:01.126Z,53.10
2023-04-11T07:30:29.025Z,53.13
2023-04-11T07:32:56.607Z,53.25
2023-04-11T07:35:23.579Z,53.41
2023-04-11T07:37:50.692Z,53.63
2023-04-11T07:40:18.142Z,53.83
2023-04-11T07:42:46.466Z,53.94
2023-04-11T07:45:13.596Z,54.03
2023-04-11T07:47:40.656Z,54.26
2023-04-11T07:50:07.884Z,54.31
2023-04-11T07:52:35.605Z,54.38
2023-04-11T07:55:03.158Z,54.14
2023-04-11T07:57:30.445Z,54.14
2023-04-11T08:00:00.284Z,54.06
2023-04-11T08:02:27.425Z,54.08
2023-04-11T08:04:54.648Z,54.03
2023-04-11T08:07:21.692Z,54.01
2023-04-11T08:09:48.638Z,54.13
2023-04-11T08:12:16.933Z,54.40
2023-04-11T08:14:43.926Z,54.58
2023-04-11T08:17:27.241Z,54.62
2023-04-11T08:19:58.364Z,54.61
2023-04-11T08:22:26.184Z,54.59
2023-04-11T08:24:53.132Z,54.72
2023-04-11T08:27:20.175Z,54.87
2023-04-11T08:29:47.181Z,55.01
2023-04-11T08:32:14.298Z,55.03
2023-04-11T08:34:41.507Z,55.02
2023-04-11T08:37:08.520Z,55.03
2023-04-11T08:39:35.640Z,55.07
2023-04-11T08:42:02.611Z,55.07
2023-04-11T08:44:29.783Z,55.13
2023-04-11T08:46:56.764Z,55.07
2023-04-11T08:49:23.720Z,55.17
2023-04-11T08:51:54.598Z,55.14
2023-04-11T08:54:21.540Z,55.28
2023-04-11T08:56:48.511Z,55.44
2023-04-11T08:59:16.049Z,55.46
2023-04-11T09:01:43.124Z,55.31
2023-04-11T09:04:11.612Z,55.40
2023-04-11T09:06:40.493Z,54.88
2023-04-11T09:09:08.399Z,54.61
2023-04-11T09:11:55.209Z,54.65
2023-04-11T09:14:26.984Z,54.68
2023-04-11T09:17:17.225Z,53.85
2023-04-11T09:19:46.203Z,51.54
2023-04-11T09:22:15.793Z,49.37
2023-04-11T09:24:43.195Z,48.85
2023-04-11T09:27:11.395Z,48.72
2023-04-11T09:29:43.185Z,49.72
2023-04-11T09:32:33.312Z,50.96
2023-04-11T09:35:18.777Z,51.87
2023-04-11T09:37:56.765Z,52.83
2023-04-11T09:40:26.096Z,53.46
2023-04-11T09:43:01.666Z,54.06
2023-04-11T09:45:32.263Z,54.51
2023-04-11T09:48:03.880Z,55.00
2023-04-11T09:50:32.007Z,55.62
2023-04-11T09:52:59.477Z,56.18
2023-04-11T09:55:27.262Z,56.48
2023-04-11T09:57:55.140Z,56.67
2023-04-11T10:00:24.663Z,56.39
2023-04-11T10:02:53.897Z,56.20
2023-04-11T10:05:28.209Z,56.07
2023-04-11T10:08:14.060Z,55.69
2023-04-11T10:10:43.576Z,55.31
2023-04-11T10:13:46.283Z,55.10
2023-04-11T10:16:15.655Z,55.20
2023-04-11T10:18:54.647Z,55.39
2023-04-11T10:21:34.005Z,55.34
2023-04-11T10:24:16.541Z,55.39
2023-04-11T10:26:55.251Z,55.48
2023-04-11T10:29:34.800Z,55.40
2023-04-11T10:32:20.517Z,54.69
2023-04-11T10:34:50.805Z,53.05
2023-04-11T10:37:19.563Z,52.36
2023-04-11T10:39:52.268Z,52.14
2023-04-11T10:42:32.527Z,52.12
2023-04-11T10:45:22.279Z,52.24
2023-04-11T10:47:52.211Z,52.43
2023-04-11T10:50:30.956Z,52.59
2023-04-11T10:52:59.173Z,52.83
2023-04-11T10:55:29.292Z,52.95
2023-04-11T10:58:22.478Z,52.99
2023-04-11T11:00:53.716Z,53.14
2023-04-11T11:03:23.058Z,53.01
2023-04-11T11:06:00.961Z,51.09
2023-04-11T11:08:34.532Z,48.16
2023-04-11T11:11:03.362Z,45.16
2023-04-11T11:13:40.605Z,42.34
2023-04-11T11:16:09.090Z,40.12
2023-04-11T11:18:37.303Z,38.39
2023-04-11T11:21:05.808Z,36.99
2023-04-11T11:23:35.582Z,35.76
2023-04-11T11:26:03.699Z,34.62
2023-04-11T11:28:30.924Z,33.65
2023-04-11T11:30:58.050Z,32.80
2023-04-11T11:33:26.920Z,32.25
2023-04-11T11:36:14.052Z,31.87
2023-04-11T11:38:41.118Z,31.41
2023-04-11T11:41:08.811Z,30.77
2023-04-11T11:43:37.502Z,30.30
2023-04-11T11:46:15.130Z,29.84
2023-04-11T11:48:59.483Z,29.50
2023-04-11T11:51:27.550Z,29.49
2023-04-11T11:54:11.517Z,29.34
2023-04-11T11:56:40.065Z,29.34
2023-04-11T11:59:07.724Z,29.36
2023-04-11T12:01:35.877Z,29.11
2023-04-11T12:04:06.599Z,28.80
2023-04-11T12:06:34.129Z,28.42
2023-04-11T12:09:11.308Z,27.91
2023-04-11T12:11:38.972Z,27.49
2023-04-11T12:14:06.377Z,27.15
2023-04-11T12:16:34.137Z,27.00
2023-04-11T12:19:03.950Z,27.00
2023-04-11T12:21:31.668Z,26.96
2023-04-11T12:23:58.967Z,26.74
2023-04-11T12:26:26.168Z,26.48
2023-04-11T12:28:53.232Z,26.09
2023-04-11T12:31:21.475Z,25.68
2023-04-11T12:33:48.701Z,25.41
2023-04-11T12:36:15.707Z,25.22
2023-04-11T12:38:42.788Z,25.10
2023-04-11T12:43:41.153Z,24.87
2023-04-11T12:46:08.214Z,24.70
2023-04-11T12:48:35.225Z,24.48
2023-04-11T12:51:02.370Z,24.25
2023-04-11T12:53:29.280Z,24.01
2023-04-11T12:55:56.597Z,23.75
2023-04-11T12:58:23.772Z,23.52
2023-04-11T13:00:50.940Z,23.32
2023-04-11T13:03:18.303Z,23.16
2023-04-11T13:05:45.602Z,22.99
2023-04-11T13:08:12.877Z,22.77
2023-04-11T13:10:39.911Z,22.54
2023-04-11T13:13:17.502Z,22.35
2023-04-11T13:15:45.207Z,22.19
2023-04-11T13:18:12.262Z,22.02
2023-04-11T13:20:39.221Z,21.79
2023-04-11T13:23:06.152Z,21.59
2023-04-11T13:25:33.112Z,21.44
2023-04-11T13:28:00.135Z,21.33
2023-04-11T13:30:27.172Z,21.19
2023-04-11T13:32:54.249Z,21.09
2023-04-11T13:35:21.655Z,21.00
2023-04-11T13:37:50.043Z,20.99
2023-04-11T13:40:17.145Z,20.95
2023-04-11T13:42:44.103Z,20.90
2023-04-11T13:45:11.698Z,20.82
2023-04-11T13:47:39.045Z,20.69
2023-04-11T13:50:08.494Z,20.61
2023-04-11T13:52:35.559Z,20.48
2023-04-11T13:55:02.580Z,20.36
2023-04-11T13:57:30.334Z,20.25
2023-04-11T13:59:57.474Z,20.16
2023-04-11T14:02:24.575Z,20.04
2023-04-11T14:04:51.635Z,19.92
2023-04-11T14:07:18.544Z,19.83
2023-04-11T14:09:45.668Z,19.77
2023-04-11T14:12:12.722Z,19.64
2023-04-11T14:14:39.679Z,19.49
2023-04-11T14:17:06.834Z,19.33
2023-04-11T14:19:34.049Z,19.20
2023-04-11T14:22:01.130Z,19.05
2023-04-11T14:24:29.098Z,18.90
2023-04-11T14:26:57.019Z,18.83
2023-04-11T14:29:24.010Z,18.76
2023-04-11T14:31:51.391Z,18.67
2023-04-11T14:34:18.833Z,18.62
2023-04-11T14:36:46.073Z,18.57
2023-04-11T14:39:13.225Z,18.47
2023-04-11T14:41:40.402Z,18.46
2023-04-11T14:44:07.434Z,18.39
2023-04-11T14:46:35.889Z,18.31
2023-04-11T14:49:03.148Z,18.21
2023-04-11T14:51:30.194Z,18.11
2023-04-11T14:53:57.436Z,17.99
2023-04-11T14:56:25.736Z,17.90
2023-04-11T14:58:53.371Z,17.81
2023-04-11T15:01:20.638Z,17.71
2023-04-11T15:03:48.125Z,17.59
2023-04-11T15:06:15.193Z,17.48
2023-04-11T15:08:42.171Z,17.37
2023-04-11T15:11:09.132Z,17.22
2023-04-11T15:13:36.211Z,17.13
2023-04-11T15:16:03.454Z,17.04
2023-04-11T15:18:31.793Z,16.90
2023-04-11T15:21:00.902Z,16.73
2023-04-11T15:23:27.936Z,16.48
2023-04-11T15:25:57.025Z,16.62
2023-04-11T15:28:25.053Z,16.40
2023-04-11T15:30:54.071Z,16.42
2023-04-11T15:33:24.487Z,16.32
2023-04-11T15:35:53.830Z,16.23
2023-04-11T15:38:21.330Z,16.15
2023-04-11T15:40:56.591Z,16.04
2023-04-11T15:43:23.920Z,15.97
2023-04-11T15:45:52.522Z,15.79
2023-04-11T15:48:19.984Z,15.73
2023-04-11T15:50:46.970Z,15.75
2023-04-11T15:53:13.991Z,15.67
2023-04-11T15:55:42.378Z,15.58
2023-04-11T15:58:10.552Z,15.50
2023-04-11T16:00:39.025Z,15.40
2023-04-11T16:03:08.514Z,15.30
2023-04-11T16:05:38.431Z,15.19
2023-04-11T16:08:07.173Z,15.12
2023-04-11T16:10:34.962Z,15.08
2023-04-11T16:13:02.796Z,15.00
2023-04-11T16:15:29.961Z,14.91
2023-04-11T16:17:57.106Z,14.86
2023-04-11T16:20:24.520Z,14.83
2023-04-11T16:22:51.560Z,14.71
2023-04-11T16:25:21.613Z,14.65
2023-04-11T16:27:51.075Z,14.57
2023-04-11T16:30:18.041Z,14.50
2023-04-11T16:32:45.363Z,14.41
2023-04-11T16:35:12.506Z,14.31
2023-04-11T16:37:39.698Z,14.23
2023-04-11T16:40:13.763Z,14.18
2023-04-11T16:42:41.071Z,14.11
2023-04-11T16:45:12.267Z,14.05
2023-04-11T16:47:39.396Z,13.99
2023-04-11T16:50:07.126Z,13.92
2023-04-11T16:52:34.286Z,13.88
2023-04-11T16:55:01.836Z,13.88
2023-04-11T16:57:29.118Z,13.90
2023-04-11T16:59:56.514Z,13.94
2023-04-11T17:02:23.681Z,13.98
2023-04-11T17:04:50.729Z,13.95
2023-04-11T17:07:17.964Z,14.00
2023-04-11T17:09:47.957Z,14.02
2023-04-11T17:12:15.003Z,14.05
2023-04-11T17:14:42.107Z,14.05
2023-04-11T17:17:09.185Z,14.07
2023-04-11T17:19:36.313Z,14.08
2023-04-11T17:22:06.094Z,14.10
2023-04-11T17:24:34.311Z,14.13
2023-04-11T17:27:01.531Z,14.10
2023-04-11T17:29:28.598Z,14.17
2023-04-11T17:31:55.587Z,14.18
2023-04-11T17:34:22.857Z,14.21
2023-04-11T17:36:49.839Z,14.28
2023-04-11T17:39:18.147Z,14.31
2023-04-11T17:41:46.244Z,14.37
2023-04-11T17:44:13.916Z,14.42
2023-04-11T17:46:41.365Z,14.49
2023-04-11T17:49:08.584Z,14.55
2023-04-11T17:51:40.895Z,14.57
2023-04-11T17:54:10.566Z,14.58
2023-04-11T17:56:37.613Z,14.44
2023-04-11T17:59:04.655Z,14.55
2023-04-11T18:01:32.801Z,14.48
2023-04-11T18:04:02.121Z,14.42
2023-04-11T18:06:29.907Z,14.41
2023-04-11T18:08:57.370Z,14.36
2023-04-11T18:11:24.626Z,14.33
2023-04-11T18:13:51.909Z,14.29
2023-04-11T18:16:19.140Z,14.26
2023-04-11T18:18:47.488Z,14.25
2023-04-11T18:21:16.264Z,14.19
2023-04-11T18:23:43.500Z,14.13
2023-04-11T18:26:10.613Z,14.12
2023-04-11T18:28:37.548Z,14.07
2023-04-11T18:31:05.132Z,14.10
2023-04-11T18:33:34.279Z,14.09
2023-04-11T18:36:02.912Z,14.09
2023-04-11T18:38:30.172Z,14.07
2023-04-11T18:40:57.655Z,14.10
2023-04-11T18:43:25.735Z,14.08
2023-04-11T18:45:52.859Z,14.07
2023-04-11T18:48:20.067Z,14.06
2023-04-11T18:50:48.877Z,14.04
2023-04-11T18:53:16.524Z,14.01
2023-04-11T18:55:43.778Z,14.01
2023-04-11T18:58:12.365Z,14.01
2023-04-11T19:00:42.116Z,13.95
2023-04-11T19:03:15.545Z,13.89
2023-04-11T19:05:43.909Z,13.78
2023-04-11T19:08:11.376Z,13.64
2023-04-11T19:10:38.480Z,13.50
2023-04-11T19:13:06.615Z,13.34
2023-04-11T19:15:33.713Z,13.18
2023-04-11T19:18:02.005Z,12.97
2023-04-11T19:20:29.700Z,12.87
2023-04-11T19:22:56.788Z,12.73
2023-04-11T19:25:23.817Z,12.59
2023-04-11T19:27:51.315Z,12.41
2023-04-11T19:30:18.271Z,12.34
2023-04-11T19:32:47.783Z,12.27
2023-04-11T19:35:15.341Z,12.19
2023-04-11T19:37:42.897Z,12.11
2023-04-11T19:40:13.920Z,12.00
2023-04-11T19:42:42.269Z,11.94
2023-04-11T19:45:11.452Z,11.92
2023-04-11T19:47:40.426Z,11.82
2023-04-11T19:50:13.517Z,11.73
2023-04-11T19:52:41.779Z,11.56
2023-04-11T19:55:12.930Z,11.52
2023-04-11T19:57:41.197Z,11.47
2023-04-11T20:00:16.276Z,11.41
2023-04-11T20:02:46.126Z,11.33
2023-04-11T20:05:19.806Z,11.27
2023-04-11T20:07:47.129Z,11.18
2023-04-11T20:10:15.555Z,11.16
2023-04-11T20:12:42.762Z,11.11
2023-04-11T20:15:11.230Z,10.99
2023-04-11T20:17:38.371Z,10.98
2023-04-11T20:20:12.696Z,10.90
2023-04-11T20:22:45.061Z,10.84
2023-04-11T20:25:12.540Z,10.77
2023-04-11T20:27:41.208Z,10.73
2023-04-11T20:30:12.336Z,10.68
2023-04-11T20:32:41.117Z,10.63
2023-04-11T20:35:09.976Z,10.58
2023-04-11T20:37:37.374Z,10.50
2023-04-11T20:40:07.902Z,10.50
2023-04-11T20:42:46.124Z,10.45
2023-04-11T20:45:16.385Z,10.36
2023-04-11T20:47:46.418Z,10.35
2023-04-11T20:50:14.860Z,10.33
2023-04-11T20:52:43.656Z,10.28
2023-04-11T20:55:11.541Z,10.24
2023-04-11T20:57:40.169Z,10.15
2023-04-11T21:00:26.236Z,10.11
2023-04-11T21:02:54.021Z,10.05
2023-04-11T21:05:25.083Z,9.99
2023-04-11T21:07:54.637Z,9.96
2023-04-11T21:10:21.674Z,9.90
2023-04-11T21:12:51.940Z,9.88
2023-04-11T21:15:20.276Z,9.82
2023-04-11T21:17:47.882Z,9.78
2023-04-11T21:20:18.476Z,9.75
2023-04-11T21:22:50.256Z,9.71
2023-04-11T21:25:17.343Z,9.65
2023-04-11T21:27:45.000Z,9.63
2023-04-11T21:30:12.857Z,9.56
2023-04-11T21:32:40.547Z,9.53
2023-04-11T21:35:11.713Z,9.47
2023-04-11T21:37:39.007Z,9.41
2023-04-11T21:40:07.054Z,9.35
2023-04-11T21:42:34.160Z,9.25
2023-04-11T21:45:01.415Z,9.24
2023-04-11T21:47:28.875Z,9.15
2023-04-11T21:49:56.121Z,9.13
2023-04-11T21:52:23.141Z,9.10
2023-04-11T21:54:50.182Z,9.03
2023-04-11T21:57:17.227Z,8.98
2023-04-11T21:59:45.072Z,8.90
2023-04-11T22:02:12.260Z,8.83
2023-04-11T22:04:47.336Z,8.72
2023-04-11T22:07:26.730Z,8.70
2023-04-11T22:10:09.160Z,8.65
2023-04-11T22:12:37.003Z,8.62
2023-04-11T22:15:05.440Z,8.57
2023-04-11T22:17:32.966Z,8.56
2023-04-11T22:19:59.966Z,8.50
2023-04-11T22:22:30.492Z,8.48
2023-04-11T22:24:58.192Z,8.45
2023-04-11T22:27:26.521Z,8.42
2023-04-11T22:29:56.242Z,8.39
2023-04-11T22:32:24.206Z,8.34
2023-04-11T22:34:51.314Z,8.31
2023-04-11T22:37:18.305Z,8.26
2023-04-11T22:39:45.743Z,8.21
2023-04-11T22:42:12.764Z,8.20
2023-04-11T22:44:39.751Z,8.16
2023-04-11T22:47:16.232Z,8.12
2023-04-11T22:49:45.091Z,8.07
2023-04-11T22:52:15.693Z,8.04
2023-04-11T22:54:43.197Z,8.01
2023-04-11T22:57:10.597Z,7.96
2023-04-11T22:59:37.705Z,7.96
2023-04-11T23:02:04.688Z,7.95
2023-04-11T23:04:32.683Z,7.93
2023-04-11T23:06:59.776Z,7.88
2023-04-11T23:09:27.197Z,7.82
2023-04-11T23:11:54.153Z,7.78
2023-04-11T23:14:22.453Z,7.66
2023-04-11T23:16:49.640Z,7.70
2023-04-11T23:19:19.048Z,7.66
2023-04-11T23:21:46.055Z,7.62
2023-04-11T23:24:13.054Z,7.58
2023-04-11T23:26:40.018Z,7.56
2023-04-11T23:29:07.553Z,7.53
2023-04-11T23:31:34.552Z,7.47
2023-04-11T23:34:01.986Z,7.46
2023-04-11T23:36:29.652Z,7.40
2023-04-11T23:38:56.946Z,7.40
2023-04-11T23:41:24.222Z,7.36
2023-04-11T23:43:51.343Z,7.35
2023-04-11T23:46:18.433Z,7.31
2023-04-11T23:48:47.301Z,7.27
2023-04-11T23:51:14.908Z,7.24
2023-04-11T23:53:43.062Z,7.19
2023-04-11T23:56:12.644Z,7.16
2023-04-11T23:58:39.645Z,7.13
